Comet Ace — H3AM — position and weather

sailwx.info

Track history (hours):
 
Tides and Currents Weather Stations Pressure Air Temp Water Temp Dewpoint Dewpoint Depression Visibility Wind Speed Wind Dir Waves Ship Positions

Comet Ace

Last reported at 2018-Jul-19 07:25 UTC. Time now 2018-Jul-20 01:07 UTC.
Position S 31°56' E 115°33'.

Length 175 m; draft 7.1 m.

Type: Cargo ship. MMSI: 351757000.

Date/timePositionNaut miles runAvg speedWind from/ knotsBaromVisibWave heightAir tempDewpointWater temp
2018-Jul-19 07:25S 31°56' E 115°33'615.0
2018-Jul-19 07:00S 31°58' E 115°40'611.6
2018-Jul-19 06:30S 32°03' E 115°43'2 4.3
2018-Jul-19 06:00S 32°03' E 115°45'0 0.0
2018-Jul-19 05:25S 32°03' E 115°45'0 0.0
2018-Jul-19 04:52S 32°03' E 115°45'0 0.0
2018-Jul-19 04:22S 32°03' E 115°45'0 0.0
2018-Jul-19 03:55S 32°03' E 115°45'0 0.0
2018-Jul-19 02:37S 32°03' E 115°45'0 0.0
2018-Jul-19 02:04S 32°03' E 115°45'0 0.0
2018-Jul-19 01:40S 32°03' E 115°45'0 0.0
2018-Jul-18 23:55S 32°03' E 115°45'0 0.0
2018-Jul-18 23:28S 32°03' E 115°45'0 0.0
2018-Jul-18 22:55S 32°03' E 115°45'0 0.0
2018-Jul-18 22:25S 32°03' E 115°45'0 0.0
2018-Jul-18 21:37S 32°03' E 115°45'0 0.0
2018-Jul-18 21:22S 32°03' E 115°45'0 0.0
2018-Jul-18 20:58S 32°03' E 115°45'0 0.0
2018-Jul-18 20:10S 32°03' E 115°45'0 0.0
2018-Jul-18 19:58S 32°03' E 115°45'0 0.0
2018-Jul-18 19:22S 32°03' E 115°45'0 0.0
2018-Jul-18 18:52S 32°03' E 115°45'0 0.0
2018-Jul-18 18:25S 32°03' E 115°45'0 0.0
2018-Jul-18 17:55S 32°03' E 115°45'0 0.0
2018-Jul-18 17:28S 32°03' E 115°45'0 0.0
2018-Jul-18 16:58S 32°03' E 115°45'0 0.0
2018-Jul-18 16:19S 32°03' E 115°45'0 0.0
2018-Jul-18 15:46S 32°03' E 115°45'0 0.0
2018-Jul-18 15:19S 32°03' E 115°45'0 0.0
2018-Jul-18 14:55S 32°03' E 115°45'1 1.3
2018-Jul-18 14:30S 32°03' E 115°45'7 6.3
2018-Jul-18 13:27S 31°58' E 115°40'  
2018-Jul-12 02:36N 01°24' E 104°30'215.1
2018-Jul-12 02:30N 01°25' E 104°29'815.4
2018-Jul-12 01:58N 01°20' E 104°22'714.3
2018-Jul-12 01:30N 01°16' E 104°17'915.6
2018-Jul-12 00:57N 01°15' E 104°08'715.3
2018-Jul-12 00:31N 01°14' E 104°01'815.0
2018-Jul-12 00:00N 01°12' E 103°54'510.1
2018-Jul-11 23:30N 01°12' E 103°49'4 7.9
2018-Jul-11 22:59N 01°15' E 103°46'3 5.3
2018-Jul-11 22:30N 01°17' E 103°45'0 0.2
2018-Jul-11 22:00N 01°17' E 103°45'0 0.0
2018-Jul-11 21:30N 01°17' E 103°45'0 0.0
2018-Jul-11 21:00N 01°17' E 103°45'0 0.0
2018-Jul-11 20:30N 01°17' E 103°45'0 0.0
2018-Jul-11 20:00N 01°17' E 103°45'0 0.0
2018-Jul-11 19:30N 01°17' E 103°45'0 0.0
2018-Jul-11 18:58N 01°17' E 103°45'0 0.0
2018-Jul-11 18:30N 01°17' E 103°45'0 0.0
2018-Jul-11 18:00N 01°17' E 103°45'0 0.0
2018-Jul-11 17:24N 01°17' E 103°45'0 0.0
2018-Jul-11 17:00N 01°17' E 103°45'0 0.0
2018-Jul-11 16:30N 01°17' E 103°45'0 0.0
2018-Jul-11 16:00N 01°17' E 103°45'0 0.0
2018-Jul-11 15:30N 01°17' E 103°45'0 0.0
2018-Jul-11 15:00N 01°17' E 103°45'0 0.0
2018-Jul-11 14:30N 01°17' E 103°45'0 0.0
2018-Jul-11 14:00N 01°17' E 103°45'0 0.0
2018-Jul-11 13:30N 01°17' E 103°45'0 0.0
2018-Jul-11 13:00N 01°17' E 103°45'0 0.0
2018-Jul-11 12:30N 01°17' E 103°45'0 0.0
2018-Jul-11 12:00N 01°17' E 103°45'0 0.0
2018-Jul-11 11:30N 01°17' E 103°45'0 0.0
2018-Jul-11 11:00N 01°17' E 103°45'0 0.9
2018-Jul-11 10:31N 01°17' E 103°45'0 0.3
2018-Jul-11 10:00N 01°16' E 103°45'3 6.1
2018-Jul-11 09:30N 01°14' E 103°47'4 7.6
2018-Jul-11 08:59N 01°12' E 103°51'3 6.5
2018-Jul-11 08:29N 01°15' E 103°53'0 0.0
2018-Jul-11 07:59N 01°15' E 103°53'0 0.0
2018-Jul-11 07:29N 01°15' E 103°53'0 0.0
2018-Jul-11 06:59N 01°15' E 103°53'0 0.1
2018-Jul-11 06:29N 01°15' E 103°53'0 0.1
2018-Jul-11 05:56N 01°15' E 103°53'0 0.1
2018-Jul-11 05:29N 01°15' E 103°53'0 0.0
2018-Jul-11 04:56N 01°15' E 103°53'0 0.1
2018-Jul-11 04:29N 01°15' E 103°53'0 0.0
2018-Jul-11 03:56N 01°15' E 103°53'0 0.0
2018-Jul-11 03:29N 01°15' E 103°53'0 0.0
2018-Jul-11 02:56N 01°15' E 103°53'0 0.0
2018-Jul-11 02:26N 01°15' E 103°53'0 0.0
2018-Jul-11 01:56N 01°15' E 103°53'0 0.1
2018-Jul-11 01:26N 01°15' E 103°53'0 0.1
2018-Jul-11 00:59N 01°15' E 103°53'0 0.0
2018-Jul-11 00:29N 01°15' E 103°53'0 0.0
2018-Jul-10 23:59N 01°15' E 103°53'0 0.0
2018-Jul-10 23:29N 01°15' E 103°53'0 0.0
2018-Jul-10 22:59N 01°15' E 103°53'0 0.0
2018-Jul-10 22:27N 01°15' E 103°53'0 0.0
2018-Jul-10 21:59N 01°15' E 103°53'0 0.0
2018-Jul-10 21:29N 01°15' E 103°53'0 0.0
2018-Jul-10 20:59N 01°15' E 103°53'0 0.0
2018-Jul-10 20:26N 01°15' E 103°53'0 0.0
2018-Jul-10 19:59N 01°15' E 103°53'0 0.0
2018-Jul-10 19:30N 01°15' E 103°53'0 0.0
2018-Jul-10 18:59N 01°15' E 103°53'0 0.0
2018-Jul-10 18:30N 01°15' E 103°53'0 0.0
2018-Jul-10 17:56N 01°15' E 103°53'0 0.1
2018-Jul-10 17:29N 01°15' E 103°53'0 0.0
2018-Jul-10 16:59N 01°15' E 103°53'0 0.1
2018-Jul-10 16:29N 01°15' E 103°53'0 0.1
2018-Jul-10 16:00N 01°15' E 103°53'0 0.0
2018-Jul-10 15:26N 01°15' E 103°53'0 0.0
2018-Jul-10 14:59N 01°15' E 103°53'0 0.0
2018-Jul-10 14:29N 01°15' E 103°53'0 0.0
2018-Jul-10 13:59N 01°15' E 103°53'0 0.0
2018-Jul-10 13:29N 01°15' E 103°53'0 0.1
2018-Jul-10 13:00N 01°15' E 103°53'0 0.0
2018-Jul-10 12:26N 01°15' E 103°53'0 0.1
2018-Jul-10 11:59N 01°15' E 103°53'0 0.0
2018-Jul-10 11:30N 01°15' E 103°53'0 0.1
2018-Jul-10 10:59N 01°15' E 103°53'0 0.1
2018-Jul-10 10:29N 01°15' E 103°53'0 0.0
2018-Jul-10 09:56N 01°15' E 103°53'0 0.0
2018-Jul-10 09:23N 01°15' E 103°53'0 0.1
2018-Jul-10 08:59N 01°15' E 103°53'0 0.0
2018-Jul-10 08:29N 01°15' E 103°53'0 0.0
2018-Jul-10 07:59N 01°15' E 103°53'0 0.0
2018-Jul-10 07:26N 01°15' E 103°53'0 0.0
2018-Jul-10 06:59N 01°15' E 103°53'0 0.0
2018-Jul-10 06:29N 01°15' E 103°53'0 0.1
2018-Jul-10 05:59N 01°15' E 103°53'0 0.0
2018-Jul-10 05:29N 01°15' E 103°53'0 0.0
2018-Jul-10 04:57N 01°15' E 103°53'0 0.0
2018-Jul-10 04:29N 01°15' E 103°53'0 0.1
2018-Jul-10 03:53N 01°15' E 103°53'0 0.0
2018-Jul-10 03:29N 01°15' E 103°53'0 0.1
2018-Jul-10 03:00N 01°15' E 103°53'0 0.0
2018-Jul-10 02:30N 01°15' E 103°53'0 0.0
2018-Jul-10 01:59N 01°15' E 103°53'0 0.0
2018-Jul-10 01:30N 01°15' E 103°53'0 0.0
2018-Jul-10 00:59N 01°15' E 103°53'0 0.0
2018-Jul-10 00:30N 01°15' E 103°53'0 0.0
2018-Jul-09 23:59N 01°15' E 103°53'0 0.0
2018-Jul-09 23:29N 01°15' E 103°53'0 0.0
2018-Jul-09 23:00N 01°15' E 103°53'0 0.5
2018-Jul-09 22:30N 01°15' E 103°53'2 3.5
2018-Jul-09 22:00N 01°13' E 103°54'3 6.6
2018-Jul-09 21:30N 01°15' E 103°57'4 8.0
2018-Jul-09 21:00N 01°16' E 104°01'611.7
2018-Jul-09 20:27N 01°16' E 104°08'612.4
2018-Jul-09 19:59N 01°17' E 104°13'712.8
2018-Jul-09 19:26N 01°20' E 104°20'613.1
2018-Jul-09 18:59N 01°23' E 104°24'612.8
2018-Jul-09 18:29N 01°28' E 104°29'714.3
2018-Jul-09 18:00N 01°33' E 104°34'  
Track history (hours):
 
Tides and Currents Weather Stations Pressure Air Temp Water Temp Dewpoint Dewpoint Depression Visibility Wind Speed Wind Dir Waves Ship Positions

Comet Ace

Last reported at 2018-Jul-19 07:25 UTC. Time now 2018-Jul-20 01:07 UTC.
Position S 31°56' E 115°33'.

Length 175 m; draft 7.1 m.

Type: Cargo ship. MMSI: 351757000.

Date/timePositionNaut miles runAvg speedWind from/ knotsBaromVisibWave heightAir tempDewpointWater temp
2018-Jul-19 07:25S 31°56' E 115°33'615.0
2018-Jul-19 07:00S 31°58' E 115°40'611.6
2018-Jul-19 06:30S 32°03' E 115°43'2 4.3
2018-Jul-19 06:00S 32°03' E 115°45'0 0.0
2018-Jul-19 05:25S 32°03' E 115°45'0 0.0
2018-Jul-19 04:52S 32°03' E 115°45'0 0.0
2018-Jul-19 04:22S 32°03' E 115°45'0 0.0
2018-Jul-19 03:55S 32°03' E 115°45'0 0.0
2018-Jul-19 02:37S 32°03' E 115°45'0 0.0
2018-Jul-19 02:04S 32°03' E 115°45'0 0.0
2018-Jul-19 01:40S 32°03' E 115°45'0 0.0
2018-Jul-18 23:55S 32°03' E 115°45'0 0.0
2018-Jul-18 23:28S 32°03' E 115°45'0 0.0
2018-Jul-18 22:55S 32°03' E 115°45'0 0.0
2018-Jul-18 22:25S 32°03' E 115°45'0 0.0
2018-Jul-18 21:37S 32°03' E 115°45'0 0.0
2018-Jul-18 21:22S 32°03' E 115°45'0 0.0
2018-Jul-18 20:58S 32°03' E 115°45'0 0.0
2018-Jul-18 20:10S 32°03' E 115°45'0 0.0
2018-Jul-18 19:58S 32°03' E 115°45'0 0.0
2018-Jul-18 19:22S 32°03' E 115°45'0 0.0
2018-Jul-18 18:52S 32°03' E 115°45'0 0.0
2018-Jul-18 18:25S 32°03' E 115°45'0 0.0
2018-Jul-18 17:55S 32°03' E 115°45'0 0.0
2018-Jul-18 17:28S 32°03' E 115°45'0 0.0
2018-Jul-18 16:58S 32°03' E 115°45'0 0.0
2018-Jul-18 16:19S 32°03' E 115°45'0 0.0
2018-Jul-18 15:46S 32°03' E 115°45'0 0.0
2018-Jul-18 15:19S 32°03' E 115°45'0 0.0
2018-Jul-18 14:55S 32°03' E 115°45'1 1.3
2018-Jul-18 14:30S 32°03' E 115°45'7 6.3
2018-Jul-18 13:27S 31°58' E 115°40'  
2018-Jul-12 02:36N 01°24' E 104°30'215.1
2018-Jul-12 02:30N 01°25' E 104°29'815.4
2018-Jul-12 01:58N 01°20' E 104°22'714.3
2018-Jul-12 01:30N 01°16' E 104°17'915.6
2018-Jul-12 00:57N 01°15' E 104°08'715.3
2018-Jul-12 00:31N 01°14' E 104°01'815.0
2018-Jul-12 00:00N 01°12' E 103°54'510.1
2018-Jul-11 23:30N 01°12' E 103°49'4 7.9
2018-Jul-11 22:59N 01°15' E 103°46'3 5.3
2018-Jul-11 22:30N 01°17' E 103°45'0 0.2
2018-Jul-11 22:00N 01°17' E 103°45'0 0.0
2018-Jul-11 21:30N 01°17' E 103°45'0 0.0
2018-Jul-11 21:00N 01°17' E 103°45'0 0.0
2018-Jul-11 20:30N 01°17' E 103°45'0 0.0
2018-Jul-11 20:00N 01°17' E 103°45'0 0.0
2018-Jul-11 19:30N 01°17' E 103°45'0 0.0
2018-Jul-11 18:58N 01°17' E 103°45'0 0.0
2018-Jul-11 18:30N 01°17' E 103°45'0 0.0
2018-Jul-11 18:00N 01°17' E 103°45'0 0.0
2018-Jul-11 17:24N 01°17' E 103°45'0 0.0
2018-Jul-11 17:00N 01°17' E 103°45'0 0.0
2018-Jul-11 16:30N 01°17' E 103°45'0 0.0
2018-Jul-11 16:00N 01°17' E 103°45'0 0.0
2018-Jul-11 15:30N 01°17' E 103°45'0 0.0
2018-Jul-11 15:00N 01°17' E 103°45'0 0.0
2018-Jul-11 14:30N 01°17' E 103°45'0 0.0
2018-Jul-11 14:00N 01°17' E 103°45'0 0.0
2018-Jul-11 13:30N 01°17' E 103°45'0 0.0
2018-Jul-11 13:00N 01°17' E 103°45'0 0.0
2018-Jul-11 12:30N 01°17' E 103°45'0 0.0
2018-Jul-11 12:00N 01°17' E 103°45'0 0.0
2018-Jul-11 11:30N 01°17' E 103°45'0 0.0
2018-Jul-11 11:00N 01°17' E 103°45'0 0.9
2018-Jul-11 10:31N 01°17' E 103°45'0 0.3
2018-Jul-11 10:00N 01°16' E 103°45'3 6.1
2018-Jul-11 09:30N 01°14' E 103°47'4 7.6
2018-Jul-11 08:59N 01°12' E 103°51'3 6.5
2018-Jul-11 08:29N 01°15' E 103°53'0 0.0
2018-Jul-11 07:59N 01°15' E 103°53'0 0.0
2018-Jul-11 07:29N 01°15' E 103°53'0 0.0
2018-Jul-11 06:59N 01°15' E 103°53'0 0.1
2018-Jul-11 06:29N 01°15' E 103°53'0 0.1
2018-Jul-11 05:56N 01°15' E 103°53'0 0.1
2018-Jul-11 05:29N 01°15' E 103°53'0 0.0
2018-Jul-11 04:56N 01°15' E 103°53'0 0.1
2018-Jul-11 04:29N 01°15' E 103°53'0 0.0
2018-Jul-11 03:56N 01°15' E 103°53'0 0.0
2018-Jul-11 03:29N 01°15' E 103°53'0 0.0
2018-Jul-11 02:56N 01°15' E 103°53'0 0.0
2018-Jul-11 02:26N 01°15' E 103°53'0 0.0
2018-Jul-11 01:56N 01°15' E 103°53'0 0.1
2018-Jul-11 01:26N 01°15' E 103°53'0 0.1
2018-Jul-11 00:59N 01°15' E 103°53'0 0.0
2018-Jul-11 00:29N 01°15' E 103°53'0 0.0
2018-Jul-10 23:59N 01°15' E 103°53'0 0.0
2018-Jul-10 23:29N 01°15' E 103°53'0 0.0
2018-Jul-10 22:59N 01°15' E 103°53'0 0.0
2018-Jul-10 22:27N 01°15' E 103°53'0 0.0
2018-Jul-10 21:59N 01°15' E 103°53'0 0.0
2018-Jul-10 21:29N 01°15' E 103°53'0 0.0
2018-Jul-10 20:59N 01°15' E 103°53'0 0.0
2018-Jul-10 20:26N 01°15' E 103°53'0 0.0
2018-Jul-10 19:59N 01°15' E 103°53'0 0.0
2018-Jul-10 19:30N 01°15' E 103°53'0 0.0
2018-Jul-10 18:59N 01°15' E 103°53'0 0.0
2018-Jul-10 18:30N 01°15' E 103°53'0 0.0
2018-Jul-10 17:56N 01°15' E 103°53'0 0.1
2018-Jul-10 17:29N 01°15' E 103°53'0 0.0
2018-Jul-10 16:59N 01°15' E 103°53'0 0.1
2018-Jul-10 16:29N 01°15' E 103°53'0 0.1
2018-Jul-10 16:00N 01°15' E 103°53'0 0.0
2018-Jul-10 15:26N 01°15' E 103°53'0 0.0
2018-Jul-10 14:59N 01°15' E 103°53'0 0.0
2018-Jul-10 14:29N 01°15' E 103°53'0 0.0
2018-Jul-10 13:59N 01°15' E 103°53'0 0.0
2018-Jul-10 13:29N 01°15' E 103°53'0 0.1
2018-Jul-10 13:00N 01°15' E 103°53'0 0.0
2018-Jul-10 12:26N 01°15' E 103°53'0 0.1
2018-Jul-10 11:59N 01°15' E 103°53'0 0.0
2018-Jul-10 11:30N 01°15' E 103°53'0 0.1
2018-Jul-10 10:59N 01°15' E 103°53'0 0.1
2018-Jul-10 10:29N 01°15' E 103°53'0 0.0
2018-Jul-10 09:56N 01°15' E 103°53'0 0.0
2018-Jul-10 09:23N 01°15' E 103°53'0 0.1
2018-Jul-10 08:59N 01°15' E 103°53'0 0.0
2018-Jul-10 08:29N 01°15' E 103°53'0 0.0
2018-Jul-10 07:59N 01°15' E 103°53'0 0.0
2018-Jul-10 07:26N 01°15' E 103°53'0 0.0
2018-Jul-10 06:59N 01°15' E 103°53'0 0.0
2018-Jul-10 06:29N 01°15' E 103°53'0 0.1
2018-Jul-10 05:59N 01°15' E 103°53'0 0.0
2018-Jul-10 05:29N 01°15' E 103°53'0 0.0
2018-Jul-10 04:57N 01°15' E 103°53'0 0.0
2018-Jul-10 04:29N 01°15' E 103°53'0 0.1
2018-Jul-10 03:53N 01°15' E 103°53'0 0.0
2018-Jul-10 03:29N 01°15' E 103°53'0 0.1
2018-Jul-10 03:00N 01°15' E 103°53'0 0.0
2018-Jul-10 02:30N 01°15' E 103°53'0 0.0
2018-Jul-10 01:59N 01°15' E 103°53'0 0.0
2018-Jul-10 01:30N 01°15' E 103°53'0 0.0
2018-Jul-10 00:59N 01°15' E 103°53'0 0.0
2018-Jul-10 00:30N 01°15' E 103°53'0 0.0
2018-Jul-09 23:59N 01°15' E 103°53'0 0.0
2018-Jul-09 23:29N 01°15' E 103°53'0 0.0
2018-Jul-09 23:00N 01°15' E 103°53'0 0.5
2018-Jul-09 22:30N 01°15' E 103°53'2 3.5
2018-Jul-09 22:00N 01°13' E 103°54'3 6.6
2018-Jul-09 21:30N 01°15' E 103°57'4 8.0
2018-Jul-09 21:00N 01°16' E 104°01'611.7
2018-Jul-09 20:27N 01°16' E 104°08'612.4
2018-Jul-09 19:59N 01°17' E 104°13'712.8
2018-Jul-09 19:26N 01°20' E 104°20'613.1
2018-Jul-09 18:59N 01°23' E 104°24'612.8
2018-Jul-09 18:29N 01°28' E 104°29'714.3
2018-Jul-09 18:00N 01°33' E 104°34'  

Dump ship's entire track history